createdAt,value
2022-09-27T00:01:45.050Z,10.58
2022-09-27T00:06:49.026Z,10.36
2022-09-27T00:11:51.753Z,10.18
2022-09-27T00:16:54.601Z,10.09
2022-09-27T00:21:57.556Z,10.03
2022-09-27T00:27:00.581Z,9.90
2022-09-27T00:32:03.583Z,9.79
2022-09-27T00:37:11.618Z,9.73
2022-09-27T00:42:14.354Z,9.62
2022-09-27T00:47:18.222Z,9.53
2022-09-27T00:52:21.139Z,9.52
2022-09-27T00:57:23.835Z,9.41
2022-09-27T01:02:27.041Z,9.37
2022-09-27T01:07:29.853Z,9.36
2022-09-27T01:12:32.695Z,9.42
2022-09-27T01:17:35.428Z,9.39
2022-09-27T01:22:38.174Z,9.36
2022-09-27T01:27:40.907Z,9.39
2022-09-27T01:32:43.840Z,9.33
2022-09-27T01:37:46.673Z,9.29
2022-09-27T01:42:50.181Z,9.25
2022-09-27T01:47:53.045Z,9.24
2022-09-27T01:52:55.978Z,9.15
2022-09-27T01:57:59.073Z,9.16
2022-09-27T02:03:01.987Z,9.15
2022-09-27T02:08:04.933Z,9.11
2022-09-27T02:13:07.795Z,9.09
2022-09-27T02:18:10.638Z,9.09
2022-09-27T02:23:13.492Z,9.05
2022-09-27T02:28:16.316Z,9.08
2022-09-27T02:33:19.116Z,9.07
2022-09-27T02:38:21.877Z,9.11
2022-09-27T02:43:24.726Z,9.11
2022-09-27T02:48:27.993Z,9.14
2022-09-27T02:53:30.981Z,9.13
2022-09-27T02:58:33.786Z,9.09
2022-09-27T03:03:36.549Z,9.06
2022-09-27T03:08:39.242Z,9.01
2022-09-27T03:14:06.824Z,9.02
2022-09-27T03:19:07.790Z,9.05
2022-09-27T03:24:13.597Z,9.00
2022-09-27T03:29:19.566Z,9.03
2022-09-27T03:34:26.448Z,9.04
2022-09-27T03:39:29.161Z,9.09
2022-09-27T03:44:32.887Z,9.12
2022-09-27T03:49:35.612Z,9.13
2022-09-27T03:54:38.377Z,9.13
2022-09-27T03:59:41.110Z,9.11
2022-09-27T04:04:45.237Z,9.11
2022-09-27T04:09:47.990Z,9.15
2022-09-27T04:14:50.714Z,9.13
2022-09-27T04:19:53.606Z,9.20
2022-09-27T04:24:56.363Z,9.21
2022-09-27T04:29:59.425Z,9.26
2022-09-27T04:35:20.074Z,9.24
2022-09-27T04:40:23.854Z,9.17
2022-09-27T04:45:26.672Z,9.16
2022-09-27T04:50:32.177Z,9.01
2022-09-27T04:55:38.796Z,8.93
2022-09-27T05:00:42.880Z,8.94
2022-09-27T05:05:45.610Z,8.99
2022-09-27T05:10:48.396Z,9.00
2022-09-27T05:15:52.695Z,9.01
2022-09-27T05:20:56.988Z,9.08
2022-09-27T05:26:00.021Z,9.11
2022-09-27T05:31:03.043Z,9.14
2022-09-27T05:36:05.857Z,9.12
2022-09-27T05:41:09.141Z,9.19
2022-09-27T05:46:11.989Z,9.17
2022-09-27T05:51:15.476Z,9.15
2022-09-27T05:56:18.338Z,9.20
2022-09-27T06:01:21.112Z,9.25
2022-09-27T06:06:23.871Z,9.24
2022-09-27T06:11:27.714Z,9.22
2022-09-27T06:16:30.674Z,9.18
2022-09-27T06:21:33.428Z,9.13
2022-09-27T06:26:37.284Z,8.92
2022-09-27T06:31:40.032Z,8.89
2022-09-27T06:36:43.709Z,9.12
2022-09-27T06:41:48.351Z,9.29
2022-09-27T06:46:51.081Z,9.62
2022-09-27T06:51:54.777Z,9.78
2022-09-27T06:57:02.226Z,9.81
2022-09-27T07:02:05.332Z,9.58
2022-09-27T07:07:08.076Z,9.73
2022-09-27T07:12:13.666Z,9.86
2022-09-27T07:17:16.550Z,9.74
2022-09-27T07:22:19.507Z,9.97
2022-09-27T07:27:22.361Z,10.08
2022-09-27T07:32:25.222Z,10.13
2022-09-27T07:37:28.122Z,10.37
2022-09-27T07:42:31.352Z,10.73
2022-09-27T07:47:34.145Z,10.76
2022-09-27T07:52:36.958Z,11.00
2022-09-27T07:57:39.689Z,10.98
2022-09-27T08:02:42.850Z,11.75
2022-09-27T08:07:45.561Z,11.69
2022-09-27T08:12:48.255Z,9.75
2022-09-27T08:17:51.529Z,8.49
2022-09-27T08:22:54.244Z,8.17
2022-09-27T08:27:57.725Z,8.69
2022-09-27T08:33:00.621Z,9.05
2022-09-27T08:38:03.424Z,9.08
2022-09-27T08:43:06.209Z,9.11
2022-09-27T08:48:09.015Z,9.43
2022-09-27T08:53:11.808Z,9.97
2022-09-27T08:58:14.659Z,10.07
2022-09-27T09:03:19.216Z,10.23
2022-09-27T09:08:22.049Z,10.33
2022-09-27T09:13:25.865Z,10.18
2022-09-27T09:18:28.665Z,9.95
2022-09-27T09:23:31.484Z,10.02
2022-09-27T09:28:34.425Z,10.24
2022-09-27T09:33:37.113Z,10.39
2022-09-27T09:38:39.834Z,11.19
2022-09-27T09:43:42.772Z,11.19
2022-09-27T09:48:46.706Z,10.93
2022-09-27T09:53:49.548Z,10.78
2022-09-27T09:58:52.447Z,10.70
2022-09-27T10:03:55.156Z,10.91
2022-09-27T10:08:57.993Z,10.92
2022-09-27T10:14:00.886Z,10.76
2022-09-27T10:19:03.750Z,10.85
2022-09-27T10:24:06.633Z,11.37
2022-09-27T10:29:09.464Z,11.84
2022-09-27T10:34:12.728Z,11.79
2022-09-27T10:39:15.582Z,11.68
2022-09-27T10:44:18.654Z,11.15
2022-09-27T10:49:21.466Z,10.33
2022-09-27T10:54:24.332Z,9.83
2022-09-27T10:59:27.175Z,10.05
2022-09-27T11:04:29.961Z,10.53
2022-09-27T11:09:32.905Z,10.91
2022-09-27T11:14:35.613Z,11.55
2022-09-27T11:19:38.382Z,12.63
2022-09-27T11:24:41.435Z,12.54
2022-09-27T11:29:44.698Z,11.70
2022-09-27T11:34:48.013Z,11.49
2022-09-27T11:39:51.347Z,11.16
2022-09-27T11:45:13.434Z,11.05
2022-09-27T11:50:18.563Z,10.51
2022-09-27T11:55:21.620Z,10.55
2022-09-27T12:00:24.925Z,11.27
2022-09-27T12:05:27.826Z,10.61
2022-09-27T12:10:31.047Z,9.71
2022-09-27T12:15:34.077Z,9.03
2022-09-27T12:20:37.433Z,7.92
2022-09-27T12:25:41.361Z,8.27
2022-09-27T12:30:44.652Z,8.52
2022-09-27T12:35:47.963Z,8.96
2022-09-27T12:40:51.119Z,10.16
2022-09-27T12:45:54.549Z,10.08
2022-09-27T12:50:57.715Z,10.23
2022-09-27T12:56:00.889Z,10.30
2022-09-27T13:01:04.108Z,10.47
2022-09-27T13:06:07.266Z,10.61
2022-09-27T13:11:10.642Z,10.92
2022-09-27T13:16:14.053Z,10.77
2022-09-27T13:21:17.272Z,11.34
2022-09-27T13:26:20.492Z,11.27
2022-09-27T13:31:24.808Z,10.90
2022-09-27T13:36:29.801Z,10.59
2022-09-27T13:41:33.112Z,10.67
2022-09-27T13:46:36.462Z,10.92
2022-09-27T13:51:39.770Z,10.58
2022-09-27T13:56:46.798Z,10.45
2022-09-27T14:01:50.300Z,10.40
2022-09-27T14:06:53.608Z,10.40
2022-09-27T14:11:56.798Z,10.45
2022-09-27T14:17:00.035Z,10.78
2022-09-27T14:22:03.187Z,10.66
2022-09-27T14:27:06.513Z,10.81
2022-09-27T14:32:10.049Z,11.12
2022-09-27T14:37:26.115Z,11.00
2022-09-27T14:42:32.475Z,10.51
2022-09-27T14:47:35.860Z,10.41
2022-09-27T14:52:39.141Z,10.31
2022-09-27T14:57:44.269Z,10.53
2022-09-27T15:02:47.654Z,10.69
2022-09-27T15:07:51.707Z,10.65
2022-09-27T15:12:57.991Z,10.73
2022-09-27T15:18:01.401Z,10.85
2022-09-27T15:23:04.771Z,10.58
2022-09-27T15:28:08.766Z,10.58
2022-09-27T15:33:12.144Z,10.46
2022-09-27T15:38:17.091Z,10.53
2022-09-27T15:43:21.015Z,10.49
2022-09-27T15:48:24.218Z,10.50
2022-09-27T15:53:27.535Z,10.60
2022-09-27T15:58:31.573Z,10.53
2022-09-27T16:03:34.863Z,9.84
2022-09-27T16:08:38.062Z,9.01
2022-09-27T16:13:41.279Z,7.90
2022-09-27T16:18:44.491Z,7.96
2022-09-27T16:23:47.687Z,7.82
2022-09-27T16:28:50.818Z,7.89
2022-09-27T16:33:54.367Z,7.91
2022-09-27T16:38:57.804Z,8.03
2022-09-27T16:44:00.955Z,8.12
2022-09-27T16:49:04.648Z,8.20
2022-09-27T16:54:07.964Z,8.30
2022-09-27T16:59:11.375Z,8.34
2022-09-27T17:04:15.216Z,8.39
2022-09-27T17:09:18.397Z,8.35
2022-09-27T17:14:22.580Z,8.15
2022-09-27T17:19:26.081Z,8.01
2022-09-27T17:24:29.346Z,7.96
2022-09-27T17:29:32.705Z,7.93
2022-09-27T17:34:35.990Z,7.96
2022-09-27T17:39:39.914Z,7.98
2022-09-27T17:44:48.436Z,7.97
2022-09-27T17:50:09.280Z,7.92
2022-09-27T17:55:12.563Z,7.88
2022-09-27T18:00:15.889Z,7.86
2022-09-27T18:05:21.358Z,7.88
2022-09-27T18:10:31.930Z,7.94
2022-09-27T18:15:39.144Z,7.90
2022-09-27T18:20:42.408Z,7.88
2022-09-27T18:25:45.608Z,7.73
2022-09-27T18:30:48.778Z,7.54
2022-09-27T18:35:52.022Z,7.43
2022-09-27T18:40:57.794Z,7.55
2022-09-27T18:46:17.879Z,7.55
2022-09-27T18:51:26.475Z,7.61
2022-09-27T18:56:29.664Z,7.64
2022-09-27T19:01:35.746Z,7.67
2022-09-27T19:06:39.219Z,7.74
2022-09-27T19:11:42.481Z,7.86
2022-09-27T19:16:47.414Z,7.90
2022-09-27T19:21:51.210Z,7.89
2022-09-27T19:26:56.797Z,7.84
2022-09-27T19:31:59.974Z,7.85
2022-09-27T19:37:03.827Z,7.82
2022-09-27T19:42:08.160Z,7.89
2022-09-27T19:47:11.425Z,7.93
2022-09-27T19:52:14.868Z,7.95
2022-09-27T19:57:18.100Z,7.97
2022-09-27T20:02:21.424Z,8.01
2022-09-27T20:07:24.738Z,7.87
2022-09-27T20:12:30.985Z,7.83
2022-09-27T20:17:34.226Z,7.79
2022-09-27T20:22:37.391Z,7.78
2022-09-27T20:27:40.746Z,7.81
2022-09-27T20:33:04.083Z,7.83
2022-09-27T20:38:07.352Z,7.83
2022-09-27T20:43:10.913Z,7.89
2022-09-27T20:48:14.807Z,7.88
2022-09-27T20:53:18.039Z,7.87
2022-09-27T20:58:21.351Z,7.84
2022-09-27T21:03:24.629Z,7.84
2022-09-27T21:08:27.897Z,7.86
2022-09-27T21:13:31.264Z,7.89
2022-09-27T21:18:34.780Z,7.86
2022-09-27T21:23:43.523Z,7.90
2022-09-27T21:28:47.983Z,7.82
2022-09-27T21:33:53.632Z,7.82
2022-09-27T21:38:56.916Z,7.86
2022-09-27T21:44:00.112Z,7.89
2022-09-27T21:49:03.292Z,7.86
2022-09-27T21:54:06.457Z,7.85
2022-09-27T21:59:10.131Z,7.82
2022-09-27T22:04:14.639Z,7.62
2022-09-27T22:09:18.082Z,7.09
2022-09-27T22:14:21.356Z,6.75
2022-09-27T22:19:24.639Z,6.70
2022-09-27T22:24:28.457Z,6.71
2022-09-27T22:29:31.732Z,6.70
2022-09-27T22:34:35.382Z,6.75
2022-09-27T22:39:39.003Z,6.83
2022-09-27T22:44:52.206Z,6.87
2022-09-27T22:49:59.889Z,6.95
2022-09-27T22:55:03.273Z,6.99
2022-09-27T23:00:07.801Z,6.96
2022-09-27T23:05:11.525Z,7.17
2022-09-27T23:10:14.993Z,7.15
2022-09-27T23:15:19.068Z,7.21
2022-09-27T23:20:22.985Z,7.28
2022-09-27T23:25:26.202Z,7.30
2022-09-27T23:30:31.771Z,7.31
2022-09-27T23:35:35.052Z,7.39
2022-09-27T23:40:39.885Z,7.51
2022-09-27T23:45:43.657Z,7.52
2022-09-27T23:50:46.968Z,7.55
2022-09-27T23:55:50.487Z,7.57
